Observations for Trim Patrick St
| Time | AQI | Temp °C | Hum % | Pres Pa | CO μg/m³ | H₂S μg/m³ | NO μg/m³ | NO₂ μg/m³ | O₃ μg/m³ | SO₂ μg/m³ | PM1 μg/m³ | PM2.5 μg/m³ | PM10 μg/m³ |
|---|---|---|---|---|---|---|---|---|---|---|---|---|---|
| Thursday 27 August 2026 | |||||||||||||
| 12:13 | 3 | 19.9 | 77 | 38,460 | 0.05 | 0 | 1.64 | 11.09 | 54.06 | 0 | 19.14 | 25.95 | 28.55 |
| 12:12 | 3 | 19.9 | 77 | 38,460 | 0.04 | 0 | 1.92 | 9.6 | 52.25 | 0.48 | 19.14 | 24.5 | 26.95 |
| 12:11 | 3 | 19.9 | 77 | 38,460 | 0.04 | 0 | 1.76 | 9.19 | 43.88 | 0 | 15.71 | 21.7 | 23.87 |
| 12:10 | 3 | 19.9 | 76 | 38,460 | 0.05 | 0 | 1.54 | 18.24 | 39.27 | 0 | 19.14 | 25.98 | 28.58 |
| 12:09 | 3 | 19.9 | 76 | 38,460 | 0.04 | 0 | 1.9 | 9.53 | 45.67 | 0 | 17.43 | 23.84 | 26.23 |
| 12:08 | 3 | 20 | 77 | 38,460 | 0.04 | 0 | 1.78 | 7.82 | 46.66 | 0 | 18.29 | 23.12 | 25.44 |
| 12:07 | 3 | 20 | 76 | 38,460 | 0.07 | 0 | 1.93 | 9.8 | 56.45 | 0 | 18.29 | 25.27 | 27.8 |
| 12:06 | 3 | 20 | 77 | 38,460 | 0.03 | 0 | 1.85 | 17.05 | 40.97 | 0.64 | 15.71 | 20.28 | 22.31 |
| 12:05 | 3 | 20 | 77 | 38,460 | 0.05 | 0 | 2.39 | 18.4 | 38.24 | 0 | 16.57 | 22.4 | 24.64 |
| 12:04 | 3 | 20 | 77 | 38,460 | 0.05 | 0 | 2.25 | 11.16 | 56.32 | 0 | 15.71 | 23.12 | 25.44 |
| 12:03 | 3 | 20 | 77 | 38,460 | 0.03 | 0 | 1.51 | 9.72 | 48.52 | 0.19 | 15.71 | 22.4 | 24.64 |
| 12:02 | 3 | 20 | 77 | 38,460 | 0.03 | 0 | 1.56 | 8.01 | 46.53 | 0 | 15.71 | 23.12 | 23.14 |
| 12:01 | 3 | 20 | 77 | 38,460 | 0.08 | 0 | 1.65 | 12.95 | 53.44 | 0 | 19.14 | 26.65 | 29.31 |
| 12:00 | 3 | 20 | 77 | 38,460 | 0.1 | 0 | 1.43 | 13.67 | 49.72 | 0 | 17.43 | 25.21 | 27.73 |
| 11:59 | 3 | 20 | 77 | 38,460 | 0.11 | 0 | 1.62 | 14.27 | 41.65 | 0.5 | 18.29 | 24.48 | 26.92 |
| 11:58 | 3 | 19.9 | 77 | 38,460 | 0.05 | 0 | 1.48 | 8.94 | 45.02 | 0.17 | 19.14 | 25.18 | 27.7 |
| 11:57 | 3 | 19.9 | 77 | 38,460 | 0.06 | 0 | 1.32 | 9.04 | 46.25 | 0 | 19.14 | 25.9 | 28.49 |
| 11:56 | 3 | 19.9 | 77 | 38,460 | 0.11 | 0 | 1.27 | 8.94 | 50.96 | 0 | 19.14 | 27.3 | 30.03 |
| 11:55 | 3 | 19.9 | 77 | 38,460 | 0.33 | 1.3 | 1.37 | 7.82 | 53.75 | 0 | 20 | 28.01 | 28.02 |
| 11:54 | 3 | 19.9 | 77 | 38,460 | 0.08 | 0 | 1.13 | 8.47 | 46 | 0 | 17.43 | 25.18 | 27.7 |